Time;durP1;ratioP1;P1;durP2;ratioP2;P2;SDS_P1;SDS_P2;PMS_P1;PMS_P2;Temp;Humidity;BMP_temperature;BMP_pressure;BME280_temperature;BME280_humidity;BME280_pressure;Samples;Min_cycle;Max_cycle;Signal;HPM_P1;HPM_P2
2021/03/12 00:00:29;;;;;;;17.85;11.07;;;-0.20;58.00;;;;;;5050201;28;20060;-57
2021/03/12 00:02:55;;;;;;;17.52;10.38;;;-0.20;58.10;;;;;;5040039;28;20381;-56
2021/03/12 00:05:21;;;;;;;18.52;10.60;;;-0.20;58.10;;;;;;5035213;28;20033;-57
2021/03/12 00:07:47;;;;;;;14.95;9.52;;;-0.30;58.10;;;;;;5035132;28;20481;-57
2021/03/12 00:10:16;;;;;;;14.13;9.38;;;-0.30;58.10;;;;;;5052713;28;20063;-57
2021/03/12 00:12:43;;;;;;;20.73;10.95;;;-0.30;58.20;;;;;;5044763;28;20036;-57
2021/03/12 00:15:14;;;;;;;12.50;8.48;;;-0.30;58.20;;;;;;5035135;28;20118;-56
2021/03/12 00:17:40;;;;;;;17.65;9.80;;;-0.30;58.10;;;;;;5045770;28;20047;-57
2021/03/12 00:20:09;;;;;;;17.35;10.68;;;-0.30;58.20;;;;;;5045034;28;20039;-54
2021/03/12 00:22:35;;;;;;;16.13;10.57;;;-0.30;58.10;;;;;;5042171;28;20032;-53
2021/03/12 00:25:01;;;;;;;17.50;10.25;;;-0.30;58.30;;;;;;5040108;28;20017;-58
2021/03/12 00:27:27;;;;;;;13.55;9.75;;;-0.30;58.40;;;;;;5035616;28;20041;-56
2021/03/12 00:29:53;;;;;;;18.48;11.30;;;-0.40;58.30;;;;;;5036538;28;20021;-57
2021/03/12 00:32:19;;;;;;;16.02;10.40;;;-0.40;58.40;;;;;;5035973;28;20017;-57
2021/03/12 00:34:45;;;;;;;15.45;9.35;;;-0.40;58.50;;;;;;5034784;28;20017;-57
2021/03/12 00:37:10;;;;;;;17.20;10.52;;;-0.40;58.50;;;;;;5044664;28;20539;-58
2021/03/12 00:39:36;;;;;;;14.05;8.93;;;-0.50;58.40;;;;;;5034011;28;20512;-55
2021/03/12 00:42:02;;;;;;;13.95;8.75;;;-0.50;58.50;;;;;;5033674;28;20017;-57
2021/03/12 00:44:27;;;;;;;13.15;8.80;;;-0.50;58.70;;;;;;5037725;28;20155;-58
2021/03/12 00:46:53;;;;;;;13.20;8.63;;;-0.50;58.60;;;;;;5037927;28;20036;-57
2021/03/12 00:49:21;;;;;;;13.40;9.55;;;-0.60;58.60;;;;;;5050344;28;20021;-58
2021/03/12 00:51:47;;;;;;;12.55;8.52;;;-0.60;58.80;;;;;;5039999;28;20033;-55
2021/03/12 00:54:12;;;;;;;11.38;7.95;;;-0.60;58.80;;;;;;5036964;28;20055;-56
2021/03/12 00:56:38;;;;;;;12.27;8.07;;;-0.60;58.70;;;;;;5032824;28;20025;-56
2021/03/12 00:59:04;;;;;;;14.40;8.85;;;-0.60;58.70;;;;;;5034425;28;20057;-58
2021/03/12 01:01:29;;;;;;;10.02;7.05;;;-0.60;58.60;;;;;;5047869;28;20026;-58
2021/03/12 01:03:55;;;;;;;14.70;8.88;;;-0.70;58.60;;;;;;5041280;28;20020;-58
2021/03/12 01:06:21;;;;;;;11.93;7.88;;;-0.70;58.90;;;;;;5033273;28;20529;-58
2021/03/12 01:08:46;;;;;;;14.00;9.32;;;-0.70;58.90;;;;;;5035500;28;20121;-58
2021/03/12 01:11:12;;;;;;;15.23;8.65;;;-0.70;58.90;;;;;;5049265;28;20063;-57
2021/03/12 01:13:37;;;;;;;13.48;7.75;;;-0.60;59.10;;;;;;5048349;28;20445;-56
2021/03/12 01:16:03;;;;;;;10.90;7.25;;;-0.60;58.90;;;;;;5033201;28;20022;-58
2021/03/12 01:18:29;;;;;;;11.35;7.78;;;-0.60;58.80;;;;;;5037340;28;20031;-56
2021/03/12 01:20:55;;;;;;;12.18;7.97;;;-0.50;58.70;;;;;;5038909;28;20416;-54
2021/03/12 01:23:20;;;;;;;13.88;7.53;;;-0.50;58.60;;;;;;5040242;28;20066;-57
2021/03/12 01:25:47;;;;;;;15.98;8.32;;;-0.50;58.70;;;;;;5044740;28;20080;-57
2021/03/12 01:28:13;;;;;;;14.07;8.93;;;-0.50;58.70;;;;;;5034170;28;20567;-57
2021/03/12 01:30:41;;;;;;;12.32;7.38;;;-0.50;58.70;;;;;;5039247;28;20063;-56
2021/03/12 01:33:07;;;;;;;12.70;7.30;;;-0.40;58.70;;;;;;5038729;28;20060;-57
2021/03/12 01:35:34;;;;;;;11.82;7.57;;;-0.40;58.50;;;;;;5043894;28;20033;-58
2021/03/12 01:38:00;;;;;;;10.85;7.00;;;-0.40;58.40;;;;;;5036086;28;20159;-58
2021/03/12 01:40:28;;;;;;;12.45;8.15;;;-0.50;58.40;;;;;;5035771;28;20036;-58
2021/03/12 01:42:56;;;;;;;13.48;7.72;;;-0.60;58.40;;;;;;5037241;28;20116;-57
2021/03/12 01:45:26;;;;;;;11.35;7.07;;;-0.60;58.40;;;;;;5039996;28;20104;-58
2021/03/12 01:47:52;;;;;;;11.68;7.43;;;-0.70;58.40;;;;;;5036230;28;20036;-56
2021/03/12 01:50:19;;;;;;;12.65;9.05;;;-0.70;58.50;;;;;;5052355;28;20032;-58
2021/03/12 01:52:46;;;;;;;13.40;8.00;;;-0.70;58.70;;;;;;5040610;28;20029;-55
2021/03/12 01:55:37;;;;;;;13.00;8.43;;;-0.70;58.40;;;;;;5032224;28;20108;-58
2021/03/12 01:58:04;;;;;;;12.25;7.57;;;-0.70;58.40;;;;;;5031950;28;20538;-57
2021/03/12 02:00:29;;;;;;;9.35;6.50;;;-0.60;58.70;;;;;;5034877;28;20115;-57
2021/03/12 02:02:57;;;;;;;9.32;6.53;;;-0.60;58.40;;;;;;5046997;28;20064;-57
2021/03/12 02:05:23;;;;;;;11.60;7.90;;;-0.60;58.20;;;;;;5044280;28;20026;-54
2021/03/12 02:07:49;;;;;;;11.98;7.82;;;-0.60;58.30;;;;;;5031263;28;20029;-57
2021/03/12 02:10:22;;;;;;;11.55;7.20;;;-0.70;58.20;;;;;;5040453;28;20140;-57
2021/03/12 02:12:58;;;;;;;11.18;6.85;;;-0.70;58.00;;;;;;5032246;28;20107;-55
2021/03/12 02:15:28;;;;;;;11.13;7.43;;;-0.70;58.10;;;;;;5034365;28;20029;-57
2021/03/12 02:18:03;;;;;;;11.98;7.72;;;-0.70;58.00;;;;;;5044099;28;20036;-56
2021/03/12 02:20:28;;;;;;;14.63;8.10;;;-0.70;57.90;;;;;;5036391;28;20033;-55
2021/03/12 02:23:16;;;;;;;10.85;6.57;;;-0.70;57.80;;;;;;5038030;28;20026;-57
2021/03/12 02:25:49;;;;;;;12.50;6.78;;;-0.70;57.60;;;;;;5033277;28;20087;-56
2021/03/12 02:28:17;;;;;;;12.02;7.30;;;-0.80;57.60;;;;;;5035724;28;20083;-57
2021/03/12 02:30:43;;;;;;;10.77;7.03;;;-0.80;57.50;;;;;;5035863;28;20033;-53
2021/03/12 02:33:10;;;;;;;10.68;6.63;;;-0.80;57.50;;;;;;5050304;28;20387;-58
2021/03/12 02:35:37;;;;;;;13.75;7.75;;;-0.90;57.30;;;;;;5036316;28;20026;-56
2021/03/12 02:38:04;;;;;;;11.73;7.43;;;-1.00;57.30;;;;;;5043527;28;20112;-58
2021/03/12 02:40:31;;;;;;;10.85;7.00;;;-1.00;57.70;;;;;;5035275;28;20091;-58
2021/03/12 02:42:57;;;;;;;10.07;7.10;;;-1.00;57.20;;;;;;5046404;28;20075;-58
2021/03/12 02:45:23;;;;;;;11.65;6.97;;;-1.00;57.40;;;;;;5041727;28;20033;-58
2021/03/12 02:47:49;;;;;;;12.82;6.53;;;-1.10;57.10;;;;;;5046675;28;20025;-57
2021/03/12 02:50:16;;;;;;;12.85;6.18;;;-1.10;57.10;;;;;;5040136;28;20500;-57
2021/03/12 02:52:43;;;;;;;10.82;7.28;;;-1.10;57.10;;;;;;5048853;28;20033;-53
2021/03/12 02:55:10;;;;;;;10.57;6.97;;;-1.20;57.10;;;;;;5051663;28;20035;-56
2021/03/12 02:57:36;;;;;;;11.95;6.90;;;-1.10;57.20;;;;;;5031906;28;20497;-54
2021/03/12 03:00:04;;;;;;;10.02;5.90;;;-1.10;57.10;;;;;;5038403;28;20071;-55
2021/03/12 03:02:30;;;;;;;10.95;7.25;;;-1.10;57.60;;;;;;5038808;28;20021;-57
2021/03/12 03:04:58;;;;;;;11.68;7.38;;;-1.10;57.00;;;;;;5036094;28;20215;-58
2021/03/12 03:07:24;;;;;;;11.48;7.43;;;-1.00;57.60;;;;;;5039414;28;20024;-57
2021/03/12 03:09:52;;;;;;;9.07;6.50;;;-1.00;56.90;;;;;;5034442;28;20089;-56
2021/03/12 03:12:20;;;;;;;10.05;6.30;;;-1.00;56.90;;;;;;5031725;28;20025;-56
2021/03/12 03:14:50;;;;;;;9.95;6.50;;;-0.90;56.80;;;;;;5031413;28;20052;-58
2021/03/12 03:17:16;;;;;;;10.13;6.35;;;-0.90;56.60;;;;;;5031488;28;20037;-58
2021/03/12 03:19:47;;;;;;;12.07;8.05;;;-0.90;56.50;;;;;;5034993;28;20021;-58
2021/03/12 03:22:13;;;;;;;11.82;7.03;;;-1.00;56.30;;;;;;5040684;28;20025;-58
2021/03/12 03:24:39;;;;;;;10.25;6.68;;;-1.10;56.20;;;;;;5039454;28;20021;-58
2021/03/12 03:27:07;;;;;;;12.90;7.70;;;-1.10;56.30;;;;;;5037689;28;20096;-58
2021/03/12 03:29:33;;;;;;;9.25;6.70;;;-1.20;56.40;;;;;;5037775;28;20032;-58
2021/03/12 03:32:00;;;;;;;11.57;6.72;;;-1.30;56.40;;;;;;5045552;28;20029;-57
2021/03/12 03:34:27;;;;;;;9.55;7.10;;;-1.30;56.40;;;;;;5047763;28;20443;-58
2021/03/12 03:36:52;;;;;;;11.82;6.70;;;-1.30;56.50;;;;;;5035665;28;20026;-55
2021/03/12 03:39:18;;;;;;;10.63;7.50;;;-1.30;56.50;;;;;;5034392;28;20473;-56
2021/03/12 03:41:50;;;;;;;12.93;8.15;;;-1.30;56.40;;;;;;5039015;28;20021;-57
2021/03/12 03:44:18;;;;;;;;;;;-1.30;56.40;;;;;;5044457;28;20373;-56
2021/03/12 03:46:46;;;;;;;10.13;6.35;;;-1.40;56.10;;;;;;5041626;28;20025;-55
2021/03/12 03:49:15;;;;;;;11.40;7.47;;;-1.40;56.30;;;;;;5034693;28;20014;-58
2021/03/12 03:51:42;;;;;;;10.05;7.40;;;-1.40;56.30;;;;;;5038410;28;20021;-57
2021/03/12 03:54:12;;;;;;;9.27;6.95;;;-1.50;56.30;;;;;;5034839;28;20034;-55
2021/03/12 03:56:39;;;;;;;12.65;7.70;;;-1.50;56.30;;;;;;5034505;28;20025;-57
2021/03/12 03:59:06;;;;;;;10.40;6.75;;;-1.40;56.30;;;;;;5042456;28;20091;-58
2021/03/12 04:01:33;;;;;;;11.45;7.75;;;-1.50;55.90;;;;;;5049301;28;20159;-57
2021/03/12 04:03:59;;;;;;;11.23;7.47;;;-1.40;56.10;;;;;;5034582;28;20020;-57
2021/03/12 04:06:28;;;;;;;9.93;6.82;;;-1.40;55.80;;;;;;5034331;28;20148;-57
2021/03/12 04:08:58;;;;;;;14.05;7.80;;;-1.40;55.90;;;;;;5047360;28;20091;-58
2021/03/12 04:11:24;;;;;;;11.38;7.15;;;-1.40;55.70;;;;;;5050406;28;20361;-55
2021/03/12 04:13:51;;;;;;;10.57;7.78;;;-1.40;55.60;;;;;;5037255;28;20031;-57
2021/03/12 04:16:17;;;;;;;8.85;6.90;;;-1.30;55.60;;;;;;5042938;28;20021;-57
2021/03/12 04:18:44;;;;;;;16.92;7.43;;;-1.30;55.60;;;;;;5043648;28;20021;-57
2021/03/12 04:21:10;;;;;;;14.27;8.75;;;-1.30;55.10;;;;;;5042151;28;20433;-58
2021/03/12 04:23:37;;;;;;;11.10;6.90;;;-1.30;55.10;;;;;;5044584;28;20113;-54
2021/03/12 04:26:03;;;;;;;13.43;7.90;;;-1.30;55.20;;;;;;5034242;28;20056;-55
2021/03/12 04:28:29;;;;;;;17.23;8.73;;;-1.30;55.10;;;;;;5039834;28;20033;-58
2021/03/12 04:30:55;;;;;;;14.40;7.68;;;-1.20;55.20;;;;;;5040641;28;20025;-57
2021/03/12 04:33:21;;;;;;;23.77;9.88;;;-1.20;54.90;;;;;;5042669;28;20532;-57
2021/03/12 04:35:47;;;;;;;14.88;7.50;;;-1.30;54.80;;;;;;5036118;28;20105;-56
2021/03/12 04:38:13;;;;;;;15.30;8.63;;;-1.30;54.70;;;;;;5037251;28;20063;-58
2021/03/12 04:40:40;;;;;;;16.65;9.80;;;-1.30;54.70;;;;;;5041432;28;20014;-57
2021/03/12 04:43:07;;;;;;;11.73;7.65;;;-1.40;54.60;;;;;;5045378;28;20029;-57
2021/03/12 04:45:33;;;;;;;13.07;7.38;;;-1.40;54.50;;;;;;5050241;28;20017;-58
2021/03/12 04:48:00;;;;;;;14.52;8.30;;;-1.40;54.50;;;;;;5033638;28;20049;-56
2021/03/12 04:50:27;;;;;;;13.30;9.00;;;-1.50;54.40;;;;;;5036304;28;20079;-58
2021/03/12 04:52:56;;;;;;;16.83;9.75;;;-1.50;54.70;;;;;;5033674;28;20025;-57
2021/03/12 04:55:23;;;;;;;16.95;9.48;;;-1.40;55.00;;;;;;5042470;28;20032;-57
2021/03/12 04:57:50;;;;;;;16.73;8.65;;;-1.40;54.80;;;;;;5035160;28;20500;-57
2021/03/12 05:00:17;;;;;;;15.65;8.82;;;-1.30;54.70;;;;;;5052561;28;20086;-58
2021/03/12 05:02:44;;;;;;;16.15;8.98;;;-1.30;54.80;;;;;;5037536;28;20013;-58
2021/03/12 05:05:10;;;;;;;13.60;8.57;;;-1.30;54.90;;;;;;5039854;28;20028;-55
2021/03/12 05:07:37;;;;;;;16.98;9.15;;;-1.20;54.80;;;;;;5040591;28;20025;-58
2021/03/12 05:10:08;;;;;;;13.77;7.88;;;-1.10;54.70;;;;;;5053207;28;20063;-58
2021/03/12 05:12:33;;;;;;;13.20;8.85;;;-1.10;54.70;;;;;;5052169;28;20155;-58
2021/03/12 05:15:00;;;;;;;16.27;9.05;;;-1.00;54.50;;;;;;5038684;28;20532;-55
2021/03/12 05:17:25;;;;;;;12.43;7.72;;;-0.90;54.40;;;;;;5053122;28;20056;-58
2021/03/12 05:19:51;;;;;;;14.70;8.60;;;-0.90;54.90;;;;;;5050400;28;20063;-56
2021/03/12 05:22:17;;;;;;;13.80;8.75;;;-1.00;53.90;;;;;;5049456;28;20029;-56
2021/03/12 05:24:42;;;;;;;14.80;9.23;;;-1.00;54.00;;;;;;5051442;28;20404;-57
2021/03/12 05:27:08;;;;;;;16.20;7.90;;;-1.00;53.90;;;;;;5038310;28;20381;-57
2021/03/12 05:29:34;;;;;;;15.30;7.75;;;-1.00;53.60;;;;;;5035495;28;20033;-54
2021/03/12 05:32:00;;;;;;;16.58;9.45;;;-1.10;53.70;;;;;;5034573;28;20357;-57
2021/03/12 05:34:27;;;;;;;11.27;7.80;;;-1.10;53.80;;;;;;5042830;28;20103;-58
2021/03/12 05:36:53;;;;;;;15.80;8.52;;;-1.10;54.00;;;;;;5035942;28;20043;-56
2021/03/12 05:39:20;;;;;;;14.20;8.52;;;-1.00;54.00;;;;;;5039196;28;20112;-58
2021/03/12 05:41:47;;;;;;;16.17;8.30;;;-1.00;53.90;;;;;;5041290;28;20080;-58
2021/03/12 05:44:12;;;;;;;16.15;7.90;;;-0.90;53.90;;;;;;5032867;28;20052;-57
2021/03/12 05:46:38;;;;;;;14.40;7.70;;;-0.90;53.50;;;;;;5042216;28;20118;-57
2021/03/12 05:49:04;;;;;;;16.30;7.93;;;-0.90;53.50;;;;;;5034011;28;20017;-56
2021/03/12 05:51:34;;;;;;;14.68;8.32;;;-0.90;53.40;;;;;;5032486;28;20116;-59
2021/03/12 05:54:02;;;;;;;17.48;7.78;;;-0.90;53.40;;;;;;5032334;28;20025;-59
2021/03/12 05:56:28;;;;;;;9.45;6.47;;;-0.80;53.40;;;;;;5032335;28;20018;-59
2021/03/12 05:58:54;;;;;;;16.10;7.82;;;-0.80;53.50;;;;;;5034058;28;20101;-58
2021/03/12 06:01:19;;;;;;;15.30;6.93;;;-0.80;53.40;;;;;;5034500;28;20056;-58
2021/03/12 06:03:45;;;;;;;13.02;7.75;;;-0.70;53.40;;;;;;5032458;28;20017;-58
2021/03/12 06:06:11;;;;;;;14.07;7.53;;;-0.70;53.10;;;;;;5038781;28;20044;-56
2021/03/12 06:08:37;;;;;;;17.10;8.43;;;-0.70;52.60;;;;;;5039559;28;20404;-58
2021/03/12 06:11:04;;;;;;;17.08;8.32;;;-0.70;52.80;;;;;;5038628;28;20044;-58
2021/03/12 06:13:29;;;;;;;17.13;8.30;;;-0.70;53.00;;;;;;5032233;28;20029;-57
2021/03/12 06:15:55;;;;;;;11.25;7.20;;;-0.60;53.20;;;;;;5033138;28;20376;-57
2021/03/12 06:18:26;;;;;;;13.27;7.10;;;-0.50;53.30;;;;;;5035945;28;20021;-58
2021/03/12 06:20:53;;;;;;;10.60;6.63;;;-0.40;52.90;;;;;;5040107;28;20036;-56
2021/03/12 06:23:36;;;;;;;14.35;7.32;;;-0.30;52.40;;;;;;5039778;28;20025;-58
2021/03/12 06:26:02;;;;;;;10.98;6.65;;;-0.40;52.10;;;;;;5032058;28;20080;-59
2021/03/12 06:28:28;;;;;;;14.00;7.60;;;-0.40;52.40;;;;;;5032014;28;20408;-54
2021/03/12 06:30:54;;;;;;;8.82;5.88;;;-0.40;51.80;;;;;;5031682;28;20075;-57
2021/03/12 06:33:29;;;;;;;12.15;7.05;;;-0.40;51.80;;;;;;5041912;28;20032;-58
2021/03/12 06:35:57;;;;;;;17.85;6.65;;;-0.30;52.10;;;;;;5039854;28;20048;-59
2021/03/12 06:38:23;;;;;;;19.02;7.47;;;-0.20;51.90;;;;;;5040615;28;20161;-59
2021/03/12 06:40:49;;;;;;;10.23;5.97;;;-0.20;51.50;;;;;;5038027;28;20112;-59
2021/03/12 06:43:16;;;;;;;11.82;6.30;;;-0.10;51.40;;;;;;5043338;28;20108;-58
2021/03/12 06:45:48;;;;;;;8.25;5.22;;;-0.10;51.30;;;;;;5036465;28;20690;-59
2021/03/12 06:48:14;;;;;;;11.25;6.25;;;0.00;51.00;;;;;;5038519;28;20025;-56
2021/03/12 06:50:45;;;;;;;10.73;5.97;;;0.00;50.80;;;;;;5033633;28;20055;-59
2021/03/12 06:53:31;;;;;;;13.93;5.40;;;0.10;51.00;;;;;;5037343;28;20038;-57
2021/03/12 06:56:05;;;;;;;12.95;5.97;;;0.20;50.20;;;;;;5037040;28;20029;-59
2021/03/12 06:58:32;;;;;;;9.45;5.43;;;0.20;49.90;;;;;;5038098;28;20047;-58
2021/03/12 07:00:58;;;;;;;11.82;5.82;;;0.10;49.80;;;;;;5038500;28;20033;-57
2021/03/12 07:03:33;;;;;;;10.13;5.82;;;0.10;49.70;;;;;;5027504;28;21837;-57
2021/03/12 07:06:19;;;;;;;11.38;6.03;;;0.10;49.70;;;;;;5035494;28;20416;-55
2021/03/12 07:08:47;;;;;;;11.93;5.55;;;0.20;50.00;;;;;;5041380;28;20886;-57
2021/03/12 07:11:24;;;;;;;7.45;4.88;;;0.20;49.60;;;;;;5039633;28;20029;-58
2021/03/12 07:13:57;;;;;;;9.38;4.90;;;0.30;49.60;;;;;;5031480;28;20112;-58
2021/03/12 07:16:23;;;;;;;13.50;5.10;;;0.30;49.10;;;;;;5034382;28;20032;-56
2021/03/12 07:18:50;;;;;;;11.57;5.05;;;0.40;49.20;;;;;;5042230;28;20040;-55
2021/03/12 07:21:19;;;;;;;8.52;4.88;;;0.40;48.90;;;;;;5038245;28;20033;-51
2021/03/12 07:23:51;;;;;;;9.02;5.25;;;0.50;49.00;;;;;;5039030;28;20665;-55
2021/03/12 07:26:18;;;;;;;10.73;5.80;;;0.60;48.80;;;;;;5035017;28;20055;-56
2021/03/12 07:28:46;;;;;;;11.02;5.32;;;0.60;48.30;;;;;;5035834;28;20056;-54
2021/03/12 07:31:16;;;;;;;14.50;5.68;;;0.70;48.50;;;;;;5038343;28;20119;-56
2021/03/12 07:33:49;;;;;;;7.90;5.15;;;0.70;48.00;;;;;;5033957;28;20464;-52
2021/03/12 07:36:24;;;;;;;14.02;5.15;;;0.70;48.00;;;;;;5038408;28;20407;-55
2021/03/12 07:38:56;;;;;;;7.63;4.72;;;0.70;47.50;;;;;;5039363;28;20034;-57
2021/03/12 07:41:23;;;;;;;9.73;4.85;;;0.70;47.80;;;;;;5038000;28;20030;-56
2021/03/12 07:43:50;;;;;;;11.35;5.07;;;0.70;47.50;;;;;;5038709;28;20025;-57
2021/03/12 07:46:17;;;;;;;8.30;4.57;;;0.70;47.50;;;;;;5036257;28;20025;-56
2021/03/12 07:48:42;;;;;;;9.18;5.40;;;0.70;47.50;;;;;;5036126;28;20033;-56
2021/03/12 07:51:14;;;;;;;8.95;4.88;;;0.70;47.30;;;;;;5033364;28;20032;-56
2021/03/12 07:53:50;;;;;;;13.40;4.88;;;0.70;47.50;;;;;;5034334;28;20021;-56
2021/03/12 07:56:18;;;;;;;7.15;4.30;;;0.80;47.20;;;;;;5038223;28;20035;-56
2021/03/12 07:58:52;;;;;;;21.05;6.85;;;0.80;47.20;;;;;;5038039;28;20041;-54
2021/03/12 08:01:19;;;;;;;8.40;4.40;;;0.90;46.90;;;;;;5039636;28;20140;-53
2021/03/12 08:03:45;;;;;;;6.93;4.70;;;0.90;47.00;;;;;;5039229;28;20025;-57
2021/03/12 08:06:32;;;;;;;7.88;4.68;;;1.00;47.20;;;;;;5036494;28;20024;-56
2021/03/12 08:08:58;;;;;;;8.68;4.57;;;1.10;47.00;;;;;;5034689;28;20044;-54
2021/03/12 08:11:29;;;;;;;7.55;4.68;;;1.20;47.20;;;;;;5030047;28;20120;-57
2021/03/12 08:14:17;;;;;;;13.93;4.90;;;1.40;46.90;;;;;;5036565;28;20040;-57
2021/03/12 08:17:09;;;;;;;11.88;5.95;;;1.40;46.30;;;;;;5034962;28;20278;-54
2021/03/12 08:19:39;;;;;;;8.18;5.45;;;1.40;46.40;;;;;;5030701;28;20590;-57
2021/03/12 08:22:26;;;;;;;14.63;5.15;;;1.40;46.60;;;;;;5032713;28;20045;-56
2021/03/12 08:24:52;;;;;;;10.70;4.88;;;1.40;46.30;;;;;;5036637;28;20388;-55
2021/03/12 08:27:42;;;;;;;8.38;5.35;;;1.40;46.20;;;;;;5036509;28;20028;-55
2021/03/12 08:30:10;;;;;;;7.63;4.75;;;1.40;46.20;;;;;;5032729;28;20029;-57
2021/03/12 08:32:36;;;;;;;6.90;4.63;;;1.50;46.60;;;;;;5033110;28;20083;-57
2021/03/12 08:35:03;;;;;;;8.77;4.55;;;1.60;46.20;;;;;;5036389;28;20048;-57
2021/03/12 08:37:29;;;;;;;11.65;4.68;;;1.60;46.10;;;;;;5040177;28;20051;-54
2021/03/12 08:40:16;;;;;;;9.30;4.57;;;1.70;46.00;;;;;;5039434;28;21510;-58
2021/03/12 08:43:08;;;;;;;15.10;5.88;;;1.70;45.60;;;;;;5039758;28;20040;-54
2021/03/12 08:45:39;;;;;;;8.85;5.28;;;1.70;45.80;;;;;;5038119;28;20063;-54
2021/03/12 08:48:17;;;;;;;;;;;1.60;45.90;;;;;;5034042;28;20071;-57
2021/03/12 08:50:52;;;;;;;18.67;5.10;;;1.60;45.40;;;;;;5036684;28;20034;-58
2021/03/12 08:53:20;;;;;;;9.10;4.47;;;1.70;46.00;;;;;;5035834;28;20419;-56
2021/03/12 08:55:47;;;;;;;12.52;5.22;;;1.70;46.00;;;;;;5033551;28;20112;-53
2021/03/12 08:58:16;;;;;;;10.25;4.60;;;1.70;46.20;;;;;;5033503;28;20103;-57
2021/03/12 09:00:44;;;;;;;8.60;5.30;;;1.80;46.20;;;;;;5037824;28;20139;-57
2021/03/12 09:03:22;;;;;;;7.25;4.75;;;1.90;46.20;;;;;;5031376;28;20021;-52
2021/03/12 09:05:52;;;;;;;9.50;4.20;;;2.00;46.20;;;;;;5035549;28;20121;-55
2021/03/12 09:08:23;;;;;;;11.10;5.30;;;2.10;46.10;;;;;;5034311;28;20037;-55
2021/03/12 09:10:49;;;;;;;8.27;4.70;;;2.20;46.20;;;;;;5036811;28;20029;-55
2021/03/12 09:13:17;;;;;;;9.60;5.18;;;2.20;45.70;;;;;;5028000;28;20025;-53
2021/03/12 09:15:44;;;;;;;12.57;5.68;;;2.30;45.50;;;;;;5031064;28;20035;-52
2021/03/12 09:18:16;;;;;;;10.10;4.78;;;2.30;45.70;;;;;;5036151;28;20033;-56
2021/03/12 09:20:43;;;;;;;10.90;5.05;;;2.30;45.50;;;;;;5032387;28;20380;-55
2021/03/12 09:23:09;;;;;;;8.55;4.82;;;2.40;45.70;;;;;;5032859;28;20033;-58
2021/03/12 09:25:35;;;;;;;9.38;4.85;;;2.40;45.80;;;;;;5038349;28;20537;-58
2021/03/12 09:28:10;;;;;;;7.80;4.30;;;2.50;45.50;;;;;;5029934;28;20072;-57
2021/03/12 09:30:40;;;;;;;9.45;4.80;;;2.50;45.80;;;;;;5033233;28;20493;-57
2021/03/12 09:33:09;;;;;;;6.78;4.78;;;2.70;45.80;;;;;;5026095;28;20040;-58
2021/03/12 09:35:40;;;;;;;9.93;5.30;;;2.70;45.70;;;;;;5017731;28;20032;-58
2021/03/12 09:38:06;;;;;;;9.18;5.25;;;2.70;45.50;;;;;;5028627;28;20083;-57
2021/03/12 09:40:41;;;;;;;7.50;4.75;;;2.80;45.50;;;;;;5023472;28;20033;-56
2021/03/12 09:43:09;;;;;;;10.88;5.60;;;2.80;45.40;;;;;;5030842;28;20033;-59
2021/03/12 09:45:38;;;;;;;8.18;4.80;;;2.80;45.70;;;;;;5034487;28;20013;-57
2021/03/12 09:48:05;;;;;;;15.07;5.25;;;2.80;45.90;;;;;;5031886;28;20112;-57
2021/03/12 09:50:36;;;;;;;12.05;6.65;;;2.90;45.70;;;;;;5027547;28;20029;-57
2021/03/12 09:53:05;;;;;;;11.40;4.95;;;2.90;45.90;;;;;;5030507;28;20053;-54
2021/03/12 09:55:35;;;;;;;9.57;5.07;;;2.90;46.00;;;;;;5027818;28;20037;-59
2021/03/12 09:58:11;;;;;;;8.65;4.90;;;3.00;46.10;;;;;;5024918;28;20105;-57
2021/03/12 10:00:36;;;;;;;9.88;5.38;;;3.00;45.60;;;;;;5027179;28;20086;-55
2021/03/12 10:03:03;;;;;;;12.32;5.53;;;3.00;45.70;;;;;;5029294;28;20033;-56
2021/03/12 10:05:29;;;;;;;8.80;4.38;;;3.10;46.10;;;;;;5035421;28;20358;-55
2021/03/12 10:08:01;;;;;;;7.80;4.38;;;3.10;46.00;;;;;;5026758;28;20028;-54
2021/03/12 10:10:30;;;;;;;20.40;5.45;;;3.20;46.20;;;;;;5030787;28;20083;-55
2021/03/12 10:12:57;;;;;;;8.10;4.57;;;3.30;45.90;;;;;;5029689;28;20495;-55
2021/03/12 10:15:36;;;;;;;8.18;4.88;;;3.30;45.70;;;;;;5026318;28;20033;-56
2021/03/12 10:18:03;;;;;;;7.43;4.90;;;3.20;46.00;;;;;;5024595;28;21776;-56
2021/03/12 10:20:37;;;;;;;10.65;5.50;;;3.30;46.20;;;;;;5023444;28;20033;-57
2021/03/12 10:23:09;;;;;;;9.07;4.88;;;3.40;46.30;;;;;;5014275;28;20030;-57
2021/03/12 10:25:42;;;;;;;23.23;6.32;;;3.40;46.30;;;;;;5026635;28;20460;-55
2021/03/12 10:28:11;;;;;;;10.85;5.35;;;3.40;46.20;;;;;;5026699;28;20021;-57
2021/03/12 10:30:45;;;;;;;10.68;5.25;;;3.30;46.20;;;;;;5025863;28;21053;-57
2021/03/12 10:33:19;;;;;;;8.95;4.95;;;3.30;46.40;;;;;;5029652;28;20500;-56
2021/03/12 10:35:46;;;;;;;8.73;5.00;;;3.30;46.50;;;;;;5028679;28;20796;-53
2021/03/12 10:38:19;;;;;;;7.70;5.10;;;3.30;46.60;;;;;;5025884;28;20104;-58
2021/03/12 10:40:50;;;;;;;11.32;6.07;;;3.20;46.60;;;;;;5018787;28;20029;-56
2021/03/12 10:43:30;;;;;;;10.10;5.32;;;3.30;47.10;;;;;;5025676;28;20029;-57
2021/03/12 10:46:02;;;;;;;12.73;6.03;;;3.30;46.80;;;;;;5028691;28;20036;-57
2021/03/12 10:48:37;;;;;;;7.20;5.10;;;3.30;47.00;;;;;;5025347;28;20033;-55
2021/03/12 10:51:05;;;;;;;10.88;5.82;;;3.40;47.10;;;;;;5025461;28;20119;-55
2021/03/12 10:53:47;;;;;;;8.68;5.47;;;3.40;46.90;;;;;;5028685;28;20144;-55
2021/03/12 10:56:13;;;;;;;10.27;5.80;;;3.30;47.00;;;;;;5025203;28;20072;-56
2021/03/12 10:58:39;;;;;;;9.18;5.65;;;3.30;47.30;;;;;;5029604;28;20083;-56
2021/03/12 11:01:05;;;;;;;10.85;5.88;;;3.30;47.40;;;;;;5020699;28;20045;-57
2021/03/12 11:03:31;;;;;;;8.40;5.07;;;3.20;47.10;;;;;;5029952;28;20039;-57
2021/03/12 11:05:57;;;;;;;9.57;4.68;;;3.10;47.10;;;;;;5029874;28;20373;-55
2021/03/12 11:08:25;;;;;;;11.32;6.00;;;3.10;47.30;;;;;;5031539;28;20029;-55
2021/03/12 11:10:51;;;;;;;14.10;5.90;;;3.00;47.50;;;;;;5024209;28;20118;-55
2021/03/12 11:13:17;;;;;;;11.15;5.82;;;3.00;47.60;;;;;;5026753;28;20033;-55
2021/03/12 11:15:43;;;;;;;10.38;5.95;;;2.90;47.60;;;;;;5034943;28;20134;-56
2021/03/12 11:18:09;;;;;;;10.50;6.32;;;3.00;47.80;;;;;;5028498;28;20112;-56
2021/03/12 11:20:34;;;;;;;12.77;5.95;;;2.90;47.70;;;;;;5032806;28;20033;-56
2021/03/12 11:23:00;;;;;;;9.00;5.70;;;2.90;47.80;;;;;;5027439;28;20021;-57
2021/03/12 11:25:26;;;;;;;11.52;5.50;;;3.00;48.00;;;;;;5031551;28;20056;-56
2021/03/12 11:27:52;;;;;;;9.85;6.15;;;3.00;47.90;;;;;;5034114;28;20032;-55
2021/03/12 11:30:20;;;;;;;12.27;7.07;;;3.00;48.00;;;;;;5032051;28;20037;-53
2021/03/12 11:32:47;;;;;;;9.63;5.72;;;3.10;48.00;;;;;;5032576;28;20033;-57
2021/03/12 11:35:15;;;;;;;8.93;5.25;;;3.00;47.90;;;;;;5032954;28;20028;-56
2021/03/12 11:37:42;;;;;;;8.75;5.15;;;2.90;47.80;;;;;;5034001;28;20048;-56
2021/03/12 11:40:09;;;;;;;8.50;5.38;;;2.90;48.00;;;;;;5037226;28;20028;-55
2021/03/12 11:42:37;;;;;;;8.05;5.22;;;2.80;48.20;;;;;;5034906;28;20036;-53
2021/03/12 11:45:04;;;;;;;8.60;5.28;;;2.70;48.20;;;;;;5034006;28;20156;-56
2021/03/12 11:47:30;;;;;;;10.30;6.18;;;2.70;48.40;;;;;;5037708;28;20024;-53
2021/03/12 11:49:55;;;;;;;13.45;6.78;;;2.70;48.60;;;;;;5033775;28;20031;-57
2021/03/12 11:52:25;;;;;;;8.80;5.70;;;2.70;48.70;;;;;;5034661;28;20056;-56
2021/03/12 11:54:53;;;;;;;8.98;5.05;;;2.80;48.80;;;;;;5029633;28;20041;-55
2021/03/12 11:57:19;;;;;;;9.48;5.53;;;2.80;48.80;;;;;;5027493;28;20679;-56
2021/03/12 11:59:45;;;;;;;7.85;5.03;;;2.90;48.90;;;;;;5030205;28;20051;-55
2021/03/12 12:02:10;;;;;;;8.98;5.38;;;2.90;48.70;;;;;;5031766;28;20032;-56
2021/03/12 12:04:36;;;;;;;9.80;6.10;;;2.90;48.80;;;;;;5034989;28;20161;-57
2021/03/12 12:07:03;;;;;;;13.30;5.75;;;2.90;49.00;;;;;;5035634;28;20029;-56
2021/03/12 12:09:29;;;;;;;8.98;5.60;;;2.90;49.00;;;;;;5028248;28;20108;-57
2021/03/12 12:11:55;;;;;;;8.98;5.28;;;2.90;49.00;;;;;;5031937;28;20086;-57
2021/03/12 12:14:21;;;;;;;12.35;5.22;;;2.90;48.90;;;;;;5028126;28;20488;-54
2021/03/12 12:16:48;;;;;;;10.70;6.10;;;2.90;48.90;;;;;;5029170;28;20052;-56
2021/03/12 12:19:16;;;;;;;7.50;5.53;;;2.90;48.90;;;;;;5032420;28;20037;-57
2021/03/12 12:21:42;;;;;;;8.45;5.57;;;2.90;49.00;;;;;;5026355;28;20052;-52
2021/03/12 12:24:09;;;;;;;9.88;6.55;;;2.90;49.10;;;;;;5034562;28;20034;-54
2021/03/12 12:26:35;;;;;;;12.60;5.43;;;2.90;48.90;;;;;;5036362;28;20036;-54
2021/03/12 12:29:03;;;;;;;10.82;5.60;;;2.90;48.90;;;;;;5029308;28;20032;-58
2021/03/12 12:31:29;;;;;;;8.25;5.68;;;2.80;48.70;;;;;;5020902;28;20029;-56
2021/03/12 12:33:55;;;;;;;9.20;5.15;;;2.80;48.90;;;;;;5024761;28;20068;-56
2021/03/12 12:36:20;;;;;;;8.13;5.25;;;2.70;48.90;;;;;;5022594;28;20040;-55
2021/03/12 12:38:46;;;;;;;11.55;5.47;;;2.70;49.20;;;;;;5026520;28;20040;-56
2021/03/12 12:41:12;;;;;;;12.73;5.40;;;2.70;49.40;;;;;;5032463;28;20116;-57
2021/03/12 12:43:39;;;;;;;9.77;5.72;;;2.70;49.50;;;;;;5035602;28;20039;-52
2021/03/12 12:46:05;;;;;;;15.20;6.05;;;2.70;49.80;;;;;;5033160;28;20048;-57
2021/03/12 12:48:30;;;;;;;9.27;5.78;;;2.60;49.90;;;;;;5031083;28;20486;-55
2021/03/12 12:50:56;;;;;;;19.77;6.80;;;2.60;50.20;;;;;;5025892;28;20456;-56